Shoryu Maru — JD2864 — position and weather

sailwx.info

Track history (hours):
 
Tides and Currents Weather Stations Pressure Air Temp Water Temp Dewpoint Dewpoint Depression Visibility Wind Speed Wind Dir Waves Ship Positions

Shoryu Maru

Last reported at 2017-Oct-14 08:34 UTC. Time now 2017-Oct-17 01:05 UTC.
Position N 34°58' E 139°27'.

Length 62 m; draft 3.9 m.

Type: Tanker. MMSI: 431000689.

Date/timePositionNaut miles runAvg speedWind from/ knotsBaromVisibWave heightAir tempDewpointWater temp
2017-Oct-14 08:34N 34°58' E 139°27'111.0
2017-Oct-14 08:30N 34°58' E 139°27'611.4
2017-Oct-14 08:00N 35°02' E 139°33'612.2
2017-Oct-14 07:30N 35°05' E 139°39'612.6
2017-Oct-14 07:00N 35°10' E 139°44'612.2
2017-Oct-14 06:30N 35°16' E 139°46'612.6
2017-Oct-14 06:00N 35°21' E 139°42'611.9
2017-Oct-14 05:30N 35°26' E 139°46'712.9
2017-Oct-14 05:00N 35°30' E 139°53'4 0.6
2017-Oct-13 22:44N 35°30' E 139°57'3 0.2
2017-Oct-13 09:41N 35°28' E 139°54'1 5.4
2017-Oct-13 09:30N 35°28' E 139°53'611.7
2017-Oct-13 09:00N 35°25' E 139°47'611.9
2017-Oct-13 08:30N 35°20' E 139°44'611.4
2017-Oct-13 08:00N 35°14' E 139°47'612.0
2017-Oct-13 07:30N 35°08' E 139°45'611.7
2017-Oct-13 07:00N 35°04' E 139°41'612.1
2017-Oct-13 06:30N 34°60' E 139°35'613.0
2017-Oct-13 06:00N 34°56' E 139°29'  
2017-Oct-10 11:29N 34°46' E 139°10'1211.9
2017-Oct-10 10:29N 34°55' E 139°20'611.6
2017-Oct-10 09:56N 34°58' E 139°27'511.7
2017-Oct-10 09:29N 35°01' E 139°32'611.8
2017-Oct-10 09:00N 35°04' E 139°38'612.6
2017-Oct-10 08:30N 35°08' E 139°43'612.0
2017-Oct-10 08:00N 35°14' E 139°46'611.4
2017-Oct-10 07:30N 35°19' E 139°43'510.6
2017-Oct-10 07:00N 35°24' E 139°43'611.6
2017-Oct-10 06:30N 35°28' E 139°49'13 2.1
2017-Oct-10 00:30N 35°32' E 140°03'5 9.4
2017-Oct-09 23:58N 35°30' E 139°57'8 0.5
2017-Oct-09 06:41N 35°26' E 139°49'213.1
2017-Oct-09 06:30N 35°25' E 139°47'613.0
2017-Oct-09 06:00N 35°18' E 139°44'612.2
2017-Oct-09 05:30N 35°13' E 139°47'612.1
2017-Oct-09 05:00N 35°07' E 139°44'611.7
2017-Oct-09 04:30N 35°03' E 139°39'612.0
2017-Oct-09 03:59N 34°59' E 139°33'612.7
2017-Oct-09 03:30N 34°56' E 139°27'  
2017-Oct-06 09:16N 34°58' E 139°28'311.5
2017-Oct-06 08:59N 35°00' E 139°31'611.4
2017-Oct-06 08:30N 35°04' E 139°36'612.2
2017-Oct-06 08:00N 35°07' E 139°42'612.2
2017-Oct-06 07:30N 35°12' E 139°46'611.3
2017-Oct-06 07:00N 35°18' E 139°44'611.5
2017-Oct-06 06:31N 35°23' E 139°43'612.0
2017-Oct-06 06:01N 35°27' E 139°48'11 1.7
2017-Oct-05 23:24N 35°32' E 140°01'510.4
2017-Oct-05 22:55N 35°29' E 139°55'1 0.1
2017-Oct-05 15:02N 35°29' E 139°55'0 0.0
2017-Oct-05 14:59N 35°29' E 139°55'0 0.0
2017-Oct-05 14:20N 35°29' E 139°55'0 0.0
2017-Oct-05 13:59N 35°29' E 139°55'0 0.0
2017-Oct-05 13:26N 35°29' E 139°55'0 0.0
2017-Oct-05 12:59N 35°29' E 139°55'0 0.0
2017-Oct-05 12:29N 35°29' E 139°55'0 0.0
2017-Oct-05 11:59N 35°29' E 139°55'0 0.0
2017-Oct-05 11:29N 35°29' E 139°55'0 0.0
2017-Oct-05 10:59N 35°29' E 139°55'0 0.0
2017-Oct-05 10:14N 35°29' E 139°55'0 0.0
2017-Oct-05 09:59N 35°29' E 139°55'0 0.0
2017-Oct-05 09:29N 35°29' E 139°55'1 2.6
2017-Oct-05 08:58N 35°29' E 139°53'611.7
2017-Oct-05 08:29N 35°25' E 139°47'611.7
2017-Oct-05 08:01N 35°20' E 139°45'611.7
2017-Oct-05 07:31N 35°15' E 139°47'612.4
2017-Oct-05 07:00N 35°08' E 139°45'612.9
2017-Oct-05 06:30N 35°03' E 139°41'712.6
2017-Oct-05 05:59N 34°59' E 139°34'  
Track history (hours):
 
Tides and Currents Weather Stations Pressure Air Temp Water Temp Dewpoint Dewpoint Depression Visibility Wind Speed Wind Dir Waves Ship Positions

Shoryu Maru

Last reported at 2017-Oct-14 08:34 UTC. Time now 2017-Oct-17 01:05 UTC.
Position N 34°58' E 139°27'.

Length 62 m; draft 3.9 m.

Type: Tanker. MMSI: 431000689.

Date/timePositionNaut miles runAvg speedWind from/ knotsBaromVisibWave heightAir tempDewpointWater temp
2017-Oct-14 08:34N 34°58' E 139°27'111.0
2017-Oct-14 08:30N 34°58' E 139°27'611.4
2017-Oct-14 08:00N 35°02' E 139°33'612.2
2017-Oct-14 07:30N 35°05' E 139°39'612.6
2017-Oct-14 07:00N 35°10' E 139°44'612.2
2017-Oct-14 06:30N 35°16' E 139°46'612.6
2017-Oct-14 06:00N 35°21' E 139°42'611.9
2017-Oct-14 05:30N 35°26' E 139°46'712.9
2017-Oct-14 05:00N 35°30' E 139°53'4 0.6
2017-Oct-13 22:44N 35°30' E 139°57'3 0.2
2017-Oct-13 09:41N 35°28' E 139°54'1 5.4
2017-Oct-13 09:30N 35°28' E 139°53'611.7
2017-Oct-13 09:00N 35°25' E 139°47'611.9
2017-Oct-13 08:30N 35°20' E 139°44'611.4
2017-Oct-13 08:00N 35°14' E 139°47'612.0
2017-Oct-13 07:30N 35°08' E 139°45'611.7
2017-Oct-13 07:00N 35°04' E 139°41'612.1
2017-Oct-13 06:30N 34°60' E 139°35'613.0
2017-Oct-13 06:00N 34°56' E 139°29'  
2017-Oct-10 11:29N 34°46' E 139°10'1211.9
2017-Oct-10 10:29N 34°55' E 139°20'611.6
2017-Oct-10 09:56N 34°58' E 139°27'511.7
2017-Oct-10 09:29N 35°01' E 139°32'611.8
2017-Oct-10 09:00N 35°04' E 139°38'612.6
2017-Oct-10 08:30N 35°08' E 139°43'612.0
2017-Oct-10 08:00N 35°14' E 139°46'611.4
2017-Oct-10 07:30N 35°19' E 139°43'510.6
2017-Oct-10 07:00N 35°24' E 139°43'611.6
2017-Oct-10 06:30N 35°28' E 139°49'13 2.1
2017-Oct-10 00:30N 35°32' E 140°03'5 9.4
2017-Oct-09 23:58N 35°30' E 139°57'8 0.5
2017-Oct-09 06:41N 35°26' E 139°49'213.1
2017-Oct-09 06:30N 35°25' E 139°47'613.0
2017-Oct-09 06:00N 35°18' E 139°44'612.2
2017-Oct-09 05:30N 35°13' E 139°47'612.1
2017-Oct-09 05:00N 35°07' E 139°44'611.7
2017-Oct-09 04:30N 35°03' E 139°39'612.0
2017-Oct-09 03:59N 34°59' E 139°33'612.7
2017-Oct-09 03:30N 34°56' E 139°27'  
2017-Oct-06 09:16N 34°58' E 139°28'311.5
2017-Oct-06 08:59N 35°00' E 139°31'611.4
2017-Oct-06 08:30N 35°04' E 139°36'612.2
2017-Oct-06 08:00N 35°07' E 139°42'612.2
2017-Oct-06 07:30N 35°12' E 139°46'611.3
2017-Oct-06 07:00N 35°18' E 139°44'611.5
2017-Oct-06 06:31N 35°23' E 139°43'612.0
2017-Oct-06 06:01N 35°27' E 139°48'11 1.7
2017-Oct-05 23:24N 35°32' E 140°01'510.4
2017-Oct-05 22:55N 35°29' E 139°55'1 0.1
2017-Oct-05 15:02N 35°29' E 139°55'0 0.0
2017-Oct-05 14:59N 35°29' E 139°55'0 0.0
2017-Oct-05 14:20N 35°29' E 139°55'0 0.0
2017-Oct-05 13:59N 35°29' E 139°55'0 0.0
2017-Oct-05 13:26N 35°29' E 139°55'0 0.0
2017-Oct-05 12:59N 35°29' E 139°55'0 0.0
2017-Oct-05 12:29N 35°29' E 139°55'0 0.0
2017-Oct-05 11:59N 35°29' E 139°55'0 0.0
2017-Oct-05 11:29N 35°29' E 139°55'0 0.0
2017-Oct-05 10:59N 35°29' E 139°55'0 0.0
2017-Oct-05 10:14N 35°29' E 139°55'0 0.0
2017-Oct-05 09:59N 35°29' E 139°55'0 0.0
2017-Oct-05 09:29N 35°29' E 139°55'1 2.6
2017-Oct-05 08:58N 35°29' E 139°53'611.7
2017-Oct-05 08:29N 35°25' E 139°47'611.7
2017-Oct-05 08:01N 35°20' E 139°45'611.7
2017-Oct-05 07:31N 35°15' E 139°47'612.4
2017-Oct-05 07:00N 35°08' E 139°45'612.9
2017-Oct-05 06:30N 35°03' E 139°41'712.6
2017-Oct-05 05:59N 34°59' E 139°34'  

Dump ship's entire track history